createdAt,value
2023-02-11T00:00:58.643Z,-2.43
2023-02-11T00:03:26.281Z,-2.50
2023-02-11T00:05:58.898Z,-2.56
2023-02-11T00:08:26.678Z,-2.59
2023-02-11T00:10:57.513Z,-2.66
2023-02-11T00:13:25.134Z,-2.73
2023-02-11T00:15:52.510Z,-2.76
2023-02-11T00:18:19.743Z,-2.82
2023-02-11T00:20:47.130Z,-2.87
2023-02-11T00:23:15.009Z,-2.92
2023-02-11T00:25:43.919Z,-2.90
2023-02-11T00:28:12.095Z,-2.87
2023-02-11T00:30:39.651Z,-2.83
2023-02-11T00:33:07.484Z,-2.80
2023-02-11T00:35:37.937Z,-2.76
2023-02-11T00:38:05.319Z,-2.74
2023-02-11T00:40:32.919Z,-2.68
2023-02-11T00:43:00.622Z,-2.65
2023-02-11T00:45:28.912Z,-2.60
2023-02-11T00:47:56.841Z,-2.60
2023-02-11T00:50:24.755Z,-2.60
2023-02-11T00:52:52.324Z,-2.57
2023-02-11T00:55:19.917Z,-2.56
2023-02-11T00:57:47.146Z,-2.56
2023-02-11T01:00:15.341Z,-2.57
2023-02-11T01:02:42.763Z,-2.55
2023-02-11T01:05:10.091Z,-2.56
2023-02-11T01:07:37.621Z,-2.55
2023-02-11T01:10:05.144Z,-2.55
2023-02-11T01:12:35.947Z,-2.56
2023-02-11T01:15:04.803Z,-2.57
2023-02-11T01:17:32.327Z,-2.56
2023-02-11T01:19:59.932Z,-2.54
2023-02-11T01:22:27.348Z,-2.53
2023-02-11T01:24:54.933Z,-2.55
2023-02-11T01:27:22.176Z,-2.58
2023-02-11T01:29:49.668Z,-2.60
2023-02-11T01:32:17.092Z,-2.62
2023-02-11T01:34:44.787Z,-2.64
2023-02-11T01:37:12.341Z,-2.65
2023-02-11T01:39:39.941Z,-2.67
2023-02-11T01:42:07.676Z,-2.70
2023-02-11T01:44:37.946Z,-2.72
2023-02-11T01:47:06.576Z,-2.73
2023-02-11T01:49:36.844Z,-2.79
2023-02-11T01:52:11.679Z,-2.79
2023-02-11T01:55:03.949Z,-2.80
2023-02-11T01:57:33.190Z,-2.80
2023-02-11T02:00:18.372Z,-2.84
2023-02-11T02:03:08.684Z,-2.87
2023-02-11T02:05:38.878Z,-2.90
2023-02-11T02:08:34.494Z,-2.94
2023-02-11T02:11:01.819Z,-2.97
2023-02-11T02:13:31.806Z,-2.99
2023-02-11T02:16:09.646Z,-2.99
2023-02-11T02:18:46.323Z,-3.00
2023-02-11T02:21:25.668Z,-3.03
2023-02-11T02:23:53.060Z,-3.03
2023-02-11T02:26:36.962Z,-3.04
2023-02-11T02:29:19.478Z,-3.08
2023-02-11T02:32:11.053Z,-3.09
2023-02-11T02:35:03.691Z,-3.14
2023-02-11T02:37:46.382Z,-3.15
2023-02-11T02:40:20.775Z,-3.21
2023-02-11T02:42:48.698Z,-3.24
2023-02-11T02:45:16.386Z,-3.26
2023-02-11T02:47:44.077Z,-3.30
2023-02-11T02:50:12.355Z,-3.35
2023-02-11T02:53:04.351Z,-3.36
2023-02-11T02:55:31.583Z,-3.38
2023-02-11T02:58:08.798Z,-3.40
2023-02-11T03:00:54.310Z,-3.40
2023-02-11T03:03:44.328Z,-3.37
2023-02-11T03:06:15.793Z,-3.38
2023-02-11T03:08:59.987Z,-3.38
2023-02-11T03:11:29.529Z,-3.40
2023-02-11T03:13:57.224Z,-3.42
2023-02-11T03:16:27.649Z,-3.45
2023-02-11T03:19:05.413Z,-3.46
2023-02-11T03:21:34.199Z,-3.49
2023-02-11T03:24:06.348Z,-3.50
2023-02-11T03:26:39.808Z,-3.56
2023-02-11T03:29:16.232Z,-3.56
2023-02-11T03:31:52.759Z,-3.58
2023-02-11T03:34:30.104Z,-3.59
2023-02-11T03:37:08.646Z,-3.60
2023-02-11T03:39:39.715Z,-3.58
2023-02-11T03:42:08.108Z,-3.57
2023-02-11T03:44:41.112Z,-3.56
2023-02-11T03:47:09.821Z,-3.55
2023-02-11T03:49:38.948Z,-3.55
2023-02-11T03:52:08.001Z,-3.57
2023-02-11T03:54:35.831Z,-3.60
2023-02-11T03:57:03.121Z,-3.60
2023-02-11T03:59:30.721Z,-3.62
2023-02-11T04:01:59.719Z,-3.63
2023-02-11T04:04:26.961Z,-3.65
2023-02-11T04:06:54.568Z,-3.65
2023-02-11T04:09:21.960Z,-3.65
2023-02-11T04:11:49.443Z,-3.66
2023-02-11T04:14:16.840Z,-3.70
2023-02-11T04:16:44.369Z,-3.71
2023-02-11T04:19:11.728Z,-3.73
2023-02-11T04:21:39.140Z,-3.75
2023-02-11T04:24:06.845Z,-3.73
2023-02-11T04:26:34.264Z,-3.73
2023-02-11T04:29:01.732Z,-3.70
2023-02-11T04:31:29.124Z,-3.68
2023-02-11T04:33:57.271Z,-3.66
2023-02-11T04:36:24.854Z,-3.67
2023-02-11T04:38:52.456Z,-3.64
2023-02-11T04:41:20.160Z,-3.69
2023-02-11T04:43:47.737Z,-3.68
2023-02-11T04:46:15.298Z,-3.65
2023-02-11T04:48:42.743Z,-3.64
2023-02-11T04:51:10.466Z,-3.64
2023-02-11T04:53:38.174Z,-3.64
2023-02-11T04:56:05.868Z,-3.65
2023-02-11T04:58:33.604Z,-3.66
2023-02-11T05:01:08.366Z,-3.67
2023-02-11T05:03:36.608Z,-3.67
2023-02-11T05:06:05.010Z,-3.65
2023-02-11T05:08:32.636Z,-3.60
2023-02-11T05:11:00.179Z,-3.55
2023-02-11T05:13:27.748Z,-3.49
2023-02-11T05:15:55.183Z,-3.42
2023-02-11T05:18:23.027Z,-3.33
2023-02-11T05:20:50.755Z,-3.26
2023-02-11T05:23:18.299Z,-3.20
2023-02-11T05:25:45.891Z,-3.18
2023-02-11T05:28:13.396Z,-3.16
2023-02-11T05:30:41.217Z,-3.14
2023-02-11T05:33:08.757Z,-3.14
2023-02-11T05:35:36.304Z,-3.16
2023-02-11T05:38:04.023Z,-3.17
2023-02-11T05:40:31.715Z,-3.18
2023-02-11T05:42:59.203Z,-3.25
2023-02-11T05:45:26.642Z,-3.28
2023-02-11T05:47:54.207Z,-3.31
2023-02-11T05:50:21.829Z,-3.33
2023-02-11T05:52:49.415Z,-3.33
2023-02-11T05:55:17.211Z,-3.35
2023-02-11T05:57:44.907Z,-3.37
2023-02-11T06:00:13.503Z,-3.37
2023-02-11T06:02:41.371Z,-3.37
2023-02-11T06:05:09.154Z,-3.35
2023-02-11T06:07:36.769Z,-3.28
2023-02-11T06:10:04.585Z,-3.25
2023-02-11T06:12:32.135Z,-3.17
2023-02-11T06:14:59.579Z,-3.08
2023-02-11T06:17:27.229Z,-2.99
2023-02-11T06:19:54.778Z,-2.89
2023-02-11T06:22:22.583Z,-2.75
2023-02-11T06:25:00.736Z,-2.63
2023-02-11T06:27:29.683Z,-2.49
2023-02-11T06:29:57.249Z,-2.34
2023-02-11T06:32:42.940Z,-2.25
2023-02-11T06:35:12.433Z,-2.08
2023-02-11T06:37:41.266Z,-1.95
2023-02-11T06:40:09.159Z,-1.74
2023-02-11T06:42:39.205Z,-1.55
2023-02-11T06:45:09.381Z,-1.36
2023-02-11T06:47:37.781Z,-1.22
2023-02-11T06:50:06.053Z,-1.07
2023-02-11T06:52:33.347Z,-0.98
2023-02-11T06:55:00.976Z,-0.90
2023-02-11T06:57:28.680Z,-0.77
2023-02-11T06:59:56.355Z,-0.66
2023-02-11T07:02:24.376Z,-0.53
2023-02-11T07:04:52.082Z,-0.44
2023-02-11T07:07:19.793Z,-0.33
2023-02-11T07:09:47.685Z,-0.22
2023-02-11T07:12:15.360Z,0.00
2023-02-11T07:14:43.087Z,0.35
2023-02-11T07:17:10.691Z,0.75
2023-02-11T07:19:38.794Z,1.23
2023-02-11T07:22:06.289Z,1.81
2023-02-11T07:24:33.796Z,2.37
2023-02-11T07:27:01.553Z,2.73
2023-02-11T07:29:29.490Z,3.13
2023-02-11T07:31:57.191Z,3.64
2023-02-11T07:34:25.164Z,3.44
2023-02-11T07:36:52.800Z,3.32
2023-02-11T07:39:21.980Z,3.19
2023-02-11T07:41:49.697Z,3.16
2023-02-11T07:44:17.556Z,3.18
2023-02-11T07:46:45.854Z,3.13
2023-02-11T07:49:13.296Z,3.11
2023-02-11T07:51:40.805Z,3.16
2023-02-11T07:54:08.568Z,3.18
2023-02-11T07:56:36.113Z,3.18
2023-02-11T07:59:04.582Z,3.14
2023-02-11T08:01:32.114Z,3.20
2023-02-11T08:04:00.817Z,3.23
2023-02-11T08:06:31.580Z,3.08
2023-02-11T08:08:59.658Z,3.19
2023-02-11T08:11:29.008Z,3.07
2023-02-11T08:13:56.947Z,3.16
2023-02-11T08:16:30.102Z,3.12
2023-02-11T08:18:59.669Z,3.13
2023-02-11T08:21:28.123Z,3.11
2023-02-11T08:23:56.120Z,3.05
2023-02-11T08:26:26.811Z,3.06
2023-02-11T08:28:56.401Z,3.15
2023-02-11T08:31:38.929Z,3.26
2023-02-11T08:34:06.911Z,3.32
2023-02-11T08:36:37.820Z,3.40
2023-02-11T08:39:18.483Z,3.47
2023-02-11T08:41:49.324Z,3.52
2023-02-11T08:44:18.417Z,3.66
2023-02-11T08:46:46.130Z,3.79
2023-02-11T08:49:14.684Z,3.99
2023-02-11T08:51:42.683Z,4.13
2023-02-11T08:54:10.690Z,4.33
2023-02-11T08:56:39.033Z,4.48
2023-02-11T08:59:07.514Z,4.95
2023-02-11T09:01:35.117Z,5.34
2023-02-11T09:04:03.029Z,5.50
2023-02-11T09:06:31.029Z,6.04
2023-02-11T09:08:58.430Z,6.44
2023-02-11T09:11:29.476Z,7.48
2023-02-11T09:13:56.953Z,8.28
2023-02-11T09:16:27.273Z,9.03
2023-02-11T09:18:54.908Z,8.81
2023-02-11T09:21:22.352Z,8.86
2023-02-11T09:23:50.717Z,8.95
2023-02-11T09:26:20.607Z,8.67
2023-02-11T09:28:48.998Z,8.02
2023-02-11T09:31:20.071Z,7.32
2023-02-11T09:33:50.616Z,7.45
2023-02-11T09:36:21.619Z,7.58
2023-02-11T09:38:49.619Z,7.44
2023-02-11T09:41:44.623Z,7.89
2023-02-11T09:44:28.626Z,8.00
2023-02-11T09:47:02.044Z,7.96
2023-02-11T09:50:00.842Z,8.27
2023-02-11T09:52:37.068Z,8.30
2023-02-11T09:55:29.633Z,8.32
2023-02-11T09:57:58.096Z,8.48
2023-02-11T10:00:34.317Z,8.68
2023-02-11T10:03:12.499Z,8.73
2023-02-11T10:05:55.386Z,8.67
2023-02-11T10:08:51.992Z,8.55
2023-02-11T10:11:31.685Z,8.49
2023-02-11T10:14:04.318Z,8.54
2023-02-11T10:16:59.394Z,8.68
2023-02-11T10:19:42.179Z,8.74
2023-02-11T10:22:19.095Z,9.01
2023-02-11T10:24:55.316Z,9.12
2023-02-11T10:27:28.883Z,8.66
2023-02-11T10:30:03.184Z,8.41
2023-02-11T10:32:45.771Z,7.89
2023-02-11T10:35:18.792Z,8.15
2023-02-11T10:37:46.765Z,9.55
2023-02-11T10:40:16.660Z,10.25
2023-02-11T10:42:48.662Z,11.53
2023-02-11T10:45:47.430Z,12.73
2023-02-11T10:48:38.422Z,13.32
2023-02-11T10:51:17.118Z,13.14
2023-02-11T10:53:46.420Z,12.91
2023-02-11T10:56:27.689Z,12.71
2023-02-11T10:59:00.128Z,11.86
2023-02-11T11:01:42.143Z,11.08
2023-02-11T11:04:34.140Z,10.40
2023-02-11T11:07:34.107Z,10.72
2023-02-11T11:10:08.610Z,10.97
2023-02-11T11:12:40.359Z,11.14
2023-02-11T11:15:11.404Z,11.20
2023-02-11T11:17:39.203Z,11.05
2023-02-11T11:20:19.553Z,10.94
2023-02-11T11:22:48.442Z,10.89
2023-02-11T11:25:27.842Z,10.64
2023-02-11T11:27:57.913Z,10.74
2023-02-11T11:30:32.337Z,10.98
2023-02-11T11:33:00.445Z,9.96
2023-02-11T11:35:29.446Z,9.91
2023-02-11T11:38:04.130Z,9.87
2023-02-11T11:40:33.447Z,9.36
2023-02-11T11:43:13.453Z,9.32
2023-02-11T11:45:57.129Z,9.47
2023-02-11T11:48:40.185Z,9.47
2023-02-11T11:51:11.273Z,9.75
2023-02-11T11:53:43.371Z,9.76
2023-02-11T11:56:20.517Z,9.42
2023-02-11T11:58:48.802Z,9.32
2023-02-11T12:01:19.216Z,8.95
2023-02-11T12:04:11.681Z,8.91
2023-02-11T12:07:05.500Z,9.00
2023-02-11T12:09:45.140Z,8.96
2023-02-11T12:12:37.465Z,9.03
2023-02-11T12:15:45.141Z,9.08
2023-02-11T12:18:17.141Z,9.07
2023-02-11T12:21:00.003Z,9.01
2023-02-11T12:23:38.153Z,9.01
2023-02-11T12:26:24.493Z,9.22
2023-02-11T12:29:16.719Z,9.25
2023-02-11T12:32:00.271Z,9.32
2023-02-11T12:34:47.479Z,9.40
2023-02-11T12:37:15.152Z,9.67
2023-02-11T12:40:10.406Z,10.26
2023-02-11T12:43:07.916Z,10.03
2023-02-11T12:45:58.203Z,10.05
2023-02-11T12:48:35.402Z,9.87
2023-02-11T12:51:16.491Z,10.30
2023-02-11T12:53:47.424Z,12.32
2023-02-11T12:56:28.827Z,13.80
2023-02-11T12:58:58.166Z,14.97
2023-02-11T13:01:32.839Z,14.38
2023-02-11T13:04:29.503Z,13.30
2023-02-11T13:07:02.514Z,11.79
2023-02-11T13:09:35.088Z,11.46
2023-02-11T13:12:24.178Z,11.10
2023-02-11T13:14:53.877Z,10.90
2023-02-11T13:17:28.182Z,10.83
2023-02-11T13:20:01.559Z,10.36
2023-02-11T13:22:35.842Z,10.02
2023-02-11T13:25:33.049Z,9.57
2023-02-11T13:28:18.579Z,9.49
2023-02-11T13:30:57.687Z,9.67
2023-02-11T13:33:34.073Z,9.79
2023-02-11T13:36:04.356Z,10.06
2023-02-11T13:38:32.354Z,10.06
2023-02-11T13:41:07.017Z,10.05
2023-02-11T13:43:36.383Z,10.13
2023-02-11T13:46:11.958Z,10.65
2023-02-11T13:48:47.197Z,11.75
2023-02-11T13:51:17.776Z,11.64
2023-02-11T13:53:47.934Z,11.37
2023-02-11T13:56:32.366Z,11.77
2023-02-11T13:59:02.408Z,12.28
2023-02-11T14:02:23.566Z,13.54
2023-02-11T14:05:24.484Z,13.57
2023-02-11T14:08:28.796Z,13.98
2023-02-11T14:11:01.496Z,14.05
2023-02-11T14:13:33.549Z,14.06
2023-02-11T14:16:16.978Z,14.27
2023-02-11T14:18:44.935Z,14.22
2023-02-11T14:21:22.092Z,14.05
2023-02-11T14:23:52.866Z,13.34
2023-02-11T14:26:20.490Z,13.83
2023-02-11T14:29:07.683Z,13.14
2023-02-11T14:31:35.321Z,12.70
2023-02-11T14:34:15.225Z,12.24
2023-02-11T14:36:57.225Z,11.35
2023-02-11T14:39:33.229Z,10.98
2023-02-11T14:42:02.002Z,10.62
2023-02-11T14:44:31.896Z,10.49
2023-02-11T14:47:00.157Z,10.67
2023-02-11T14:49:38.334Z,11.16
2023-02-11T14:52:31.453Z,11.38
2023-02-11T14:55:13.600Z,11.65
2023-02-11T14:57:42.579Z,11.64
2023-02-11T15:00:28.599Z,11.38
2023-02-11T15:02:56.602Z,11.10
2023-02-11T15:05:29.187Z,10.38
2023-02-11T15:08:00.260Z,10.07
2023-02-11T15:10:38.742Z,9.81
2023-02-11T15:13:06.426Z,9.52
2023-02-11T15:15:36.293Z,9.24
2023-02-11T15:18:05.003Z,9.17
2023-02-11T15:20:33.979Z,8.96
2023-02-11T15:23:08.898Z,8.80
2023-02-11T15:25:44.209Z,8.57
2023-02-11T15:28:22.063Z,8.28
2023-02-11T15:31:06.710Z,8.07
2023-02-11T15:33:34.261Z,7.97
2023-02-11T15:36:05.443Z,7.84
2023-02-11T15:38:34.260Z,7.70
2023-02-11T15:41:03.615Z,7.59
2023-02-11T15:43:48.267Z,7.49
2023-02-11T15:46:21.427Z,7.32
2023-02-11T15:48:55.979Z,7.08
2023-02-11T15:51:25.480Z,6.80
2023-02-11T15:53:57.152Z,6.66
2023-02-11T15:56:37.981Z,6.58
2023-02-11T15:59:24.274Z,6.48
2023-02-11T16:01:52.973Z,6.37
2023-02-11T16:04:23.710Z,6.27
2023-02-11T16:06:52.002Z,6.23
2023-02-11T16:09:19.984Z,6.22
2023-02-11T16:11:48.036Z,6.16
2023-02-11T16:14:23.861Z,6.13
2023-02-11T16:16:54.297Z,6.13
2023-02-11T16:19:25.374Z,6.09
2023-02-11T16:21:54.287Z,6.03
2023-02-11T16:24:28.268Z,5.94
2023-02-11T16:26:58.640Z,5.87
2023-02-11T16:29:29.991Z,5.80
2023-02-11T16:32:16.992Z,5.73
2023-02-11T16:34:45.092Z,5.61
2023-02-11T16:37:12.994Z,5.51
2023-02-11T16:39:41.084Z,5.47
2023-02-11T16:42:13.141Z,5.30
2023-02-11T16:44:40.485Z,5.12
2023-02-11T16:47:11.177Z,4.99
2023-02-11T16:49:42.494Z,4.80
2023-02-11T16:52:14.867Z,4.76
2023-02-11T16:54:43.007Z,4.74
2023-02-11T16:57:30.473Z,4.72
2023-02-11T16:59:59.470Z,4.69
2023-02-11T17:02:29.310Z,4.57
2023-02-11T17:05:00.117Z,4.44
2023-02-11T17:07:28.045Z,4.41
2023-02-11T17:09:55.897Z,4.36
2023-02-11T17:12:26.879Z,4.36
2023-02-11T17:14:54.885Z,4.39
2023-02-11T17:17:24.072Z,4.36
2023-02-11T17:19:52.107Z,4.31
2023-02-11T17:22:20.007Z,4.32
2023-02-11T17:24:47.672Z,4.40
2023-02-11T17:27:15.675Z,4.47
2023-02-11T17:29:43.889Z,4.42
2023-02-11T17:32:13.091Z,4.39
2023-02-11T17:34:41.681Z,4.38
2023-02-11T17:37:11.805Z,4.43
2023-02-11T17:39:40.078Z,4.52
2023-02-11T17:42:08.865Z,4.50
2023-02-11T17:44:36.896Z,4.50
2023-02-11T17:47:04.765Z,4.50
2023-02-11T17:49:32.337Z,4.49
2023-02-11T17:52:00.127Z,4.46
2023-02-11T17:54:27.998Z,4.40
2023-02-11T17:56:58.216Z,4.37
2023-02-11T17:59:26.540Z,4.41
2023-02-11T18:01:54.140Z,4.49
2023-02-11T18:04:22.129Z,4.56
2023-02-11T18:06:50.702Z,4.66
2023-02-11T18:09:18.345Z,4.72
2023-02-11T18:11:46.912Z,4.76
2023-02-11T18:14:14.914Z,4.84
2023-02-11T18:16:45.074Z,4.90
2023-02-11T18:19:13.150Z,4.97
2023-02-11T18:21:40.918Z,5.02
2023-02-11T18:24:08.795Z,5.03
2023-02-11T18:26:36.920Z,5.10
2023-02-11T18:29:06.537Z,5.08
2023-02-11T18:31:35.704Z,5.11
2023-02-11T18:34:07.684Z,5.13
2023-02-11T18:36:36.573Z,5.10
2023-02-11T18:39:05.203Z,5.12
2023-02-11T18:41:32.709Z,5.15
2023-02-11T18:44:03.176Z,5.17
2023-02-11T18:46:31.473Z,5.20
2023-02-11T18:49:00.752Z,5.13
2023-02-11T18:51:28.908Z,5.13
2023-02-11T18:53:56.182Z,5.17
2023-02-11T18:56:27.948Z,5.22
2023-02-11T18:58:57.047Z,5.25
2023-02-11T19:01:27.364Z,5.23
2023-02-11T19:03:57.500Z,5.20
2023-02-11T19:06:28.147Z,5.17
2023-02-11T19:08:59.715Z,5.18
2023-02-11T19:11:50.399Z,5.22
2023-02-11T19:14:31.594Z,5.21
2023-02-11T19:17:01.169Z,5.24
2023-02-11T19:19:31.135Z,5.24
2023-02-11T19:22:00.083Z,5.30
2023-02-11T19:24:29.011Z,5.32
2023-02-11T19:26:59.393Z,5.37
2023-02-11T19:29:27.959Z,5.34
2023-02-11T19:31:56.140Z,5.33
2023-02-11T19:34:23.766Z,5.28
2023-02-11T19:36:51.565Z,5.27
2023-02-11T19:39:19.401Z,5.27
2023-02-11T19:41:47.060Z,5.22
2023-02-11T19:44:15.063Z,5.17
2023-02-11T19:46:42.934Z,5.12
2023-02-11T19:49:12.397Z,5.14
2023-02-11T19:51:40.064Z,5.14
2023-02-11T19:54:08.150Z,5.12
2023-02-11T19:56:38.063Z,5.06
2023-02-11T19:59:09.113Z,5.07
2023-02-11T20:01:37.249Z,5.00
2023-02-11T20:04:04.979Z,4.97
2023-02-11T20:06:33.625Z,4.95
2023-02-11T20:09:04.073Z,5.00
2023-02-11T20:11:32.976Z,4.95
2023-02-11T20:14:01.076Z,4.96
2023-02-11T20:16:46.214Z,4.95
2023-02-11T20:19:18.798Z,4.81
2023-02-11T20:21:48.278Z,4.83
2023-02-11T20:24:19.148Z,4.89
2023-02-11T20:26:48.342Z,4.80
2023-02-11T20:29:17.450Z,4.82
2023-02-11T20:31:45.610Z,4.81
2023-02-11T20:34:13.656Z,4.78
2023-02-11T20:36:41.311Z,4.76
2023-02-11T20:39:11.188Z,4.76
2023-02-11T20:41:40.225Z,4.63
2023-02-11T20:44:10.644Z,4.57
2023-02-11T20:46:40.559Z,4.58
2023-02-11T20:49:17.316Z,4.49
2023-02-11T20:51:45.652Z,4.46
2023-02-11T20:54:15.431Z,4.49
2023-02-11T20:56:44.064Z,4.56
2023-02-11T20:59:14.062Z,4.60
2023-02-11T21:01:44.044Z,4.54
2023-02-11T21:04:25.666Z,4.57
2023-02-11T21:06:56.235Z,4.57
2023-02-11T21:09:27.830Z,4.54
2023-02-11T21:11:56.087Z,4.58
2023-02-11T21:14:25.141Z,4.58
2023-02-11T21:16:53.019Z,4.59
2023-02-11T21:19:21.518Z,4.65
2023-02-11T21:21:49.941Z,4.84
2023-02-11T21:24:17.834Z,4.91
2023-02-11T21:26:45.537Z,4.98
2023-02-11T21:29:13.455Z,5.12
2023-02-11T21:31:41.180Z,5.23
2023-02-11T21:34:08.690Z,5.27
2023-02-11T21:36:37.045Z,5.38
2023-02-11T21:39:05.904Z,5.42
2023-02-11T21:41:33.702Z,5.33
2023-02-11T21:44:01.696Z,5.37
2023-02-11T21:46:29.605Z,5.26
2023-02-11T21:48:58.042Z,5.22
2023-02-11T21:51:26.416Z,5.16
2023-02-11T21:53:58.939Z,4.98
2023-02-11T21:56:29.868Z,4.86
2023-02-11T21:58:58.220Z,4.76
2023-02-11T22:01:31.032Z,4.65
2023-02-11T22:03:59.490Z,4.58
2023-02-11T22:06:31.117Z,4.46
2023-02-11T22:08:59.871Z,4.36
2023-02-11T22:11:27.273Z,4.28
2023-02-11T22:13:56.583Z,4.21
2023-02-11T22:16:24.363Z,4.13
2023-02-11T22:18:52.283Z,4.02
2023-02-11T22:21:22.175Z,3.91
2023-02-11T22:23:50.515Z,3.89
2023-02-11T22:26:20.818Z,3.88
2023-02-11T22:28:48.883Z,3.80
2023-02-11T22:31:20.376Z,3.72
2023-02-11T22:33:48.077Z,3.74
2023-02-11T22:36:23.168Z,3.74
2023-02-11T22:38:51.129Z,3.69
2023-02-11T22:41:18.885Z,3.77
2023-02-11T22:43:46.901Z,3.72
2023-02-11T22:46:17.414Z,3.69
2023-02-11T22:48:45.290Z,3.70
2023-02-11T22:51:20.885Z,3.70
2023-02-11T22:53:56.889Z,3.71
2023-02-11T22:56:25.307Z,3.67
2023-02-11T22:58:54.007Z,3.62
2023-02-11T23:01:21.327Z,3.58
2023-02-11T23:03:49.103Z,3.58
2023-02-11T23:06:17.132Z,3.53
2023-02-11T23:08:45.148Z,3.49
2023-02-11T23:11:15.903Z,3.46
2023-02-11T23:13:45.131Z,3.42
2023-02-11T23:16:16.142Z,3.37
2023-02-11T23:18:44.910Z,3.37
2023-02-11T23:21:32.917Z,3.36
2023-02-11T23:24:06.323Z,3.39
2023-02-11T23:26:34.097Z,3.35
2023-02-11T23:29:01.778Z,3.36
2023-02-11T23:31:37.739Z,3.32
2023-02-11T23:34:09.042Z,3.29
2023-02-11T23:36:37.075Z,3.28
2023-02-11T23:39:05.124Z,3.25
2023-02-11T23:41:32.545Z,3.26
2023-02-11T23:44:00.348Z,3.27
2023-02-11T23:46:28.191Z,3.26
2023-02-11T23:48:55.936Z,3.25
2023-02-11T23:51:23.936Z,3.25
2023-02-11T23:53:52.936Z,3.19
2023-02-11T23:56:22.935Z,3.27
2023-02-11T23:58:52.152Z,3.29
